createdAt,value
2022-11-15T00:00:59.279Z,94.08
2022-11-15T00:01:59.325Z,94.74
2022-11-15T00:02:59.237Z,94.37
2022-11-15T00:03:59.217Z,94.56
2022-11-15T00:04:59.194Z,94.56
2022-11-15T00:05:59.192Z,93.60
2022-11-15T00:06:59.232Z,94.08
2022-11-15T00:07:59.224Z,93.98
2022-11-15T00:08:59.105Z,94.46
2022-11-15T00:09:59.089Z,94.27
2022-11-15T00:10:59.067Z,94.37
2022-11-15T00:11:59.056Z,93.98
2022-11-15T00:12:59.041Z,93.88
2022-11-15T00:13:59.002Z,93.70
2022-11-15T00:14:58.982Z,94.56
2022-11-15T00:15:58.962Z,92.93
2022-11-15T00:16:58.938Z,93.12
2022-11-15T00:17:58.928Z,94.08
2022-11-15T00:18:58.901Z,93.51
2022-11-15T00:19:58.887Z,93.32
2022-11-15T00:20:58.858Z,93.60
2022-11-15T00:21:58.858Z,93.12
2022-11-15T00:22:58.816Z,93.60
2022-11-15T00:23:58.800Z,94.65
2022-11-15T00:24:58.779Z,94.27
2022-11-15T00:25:58.765Z,94.46
2022-11-15T00:26:58.734Z,94.46
2022-11-15T00:27:58.712Z,94.93
2022-11-15T00:28:58.688Z,95.03
2022-11-15T00:29:58.671Z,95.12
2022-11-15T00:30:58.647Z,95.03
2022-11-15T00:31:58.628Z,95.12
2022-11-15T00:32:58.607Z,94.84
2022-11-15T00:33:58.602Z,94.46
2022-11-15T00:34:58.568Z,94.46
2022-11-15T00:35:58.548Z,94.27
2022-11-15T00:36:58.523Z,94.56
2022-11-15T00:37:58.534Z,94.65
2022-11-15T00:38:58.481Z,94.08
2022-11-15T00:39:58.462Z,93.88
2022-11-15T00:40:58.457Z,94.65
2022-11-15T00:41:58.418Z,94.65
2022-11-15T00:42:58.397Z,94.65
2022-11-15T00:43:58.379Z,94.65
2022-11-15T00:44:58.355Z,94.65
2022-11-15T00:45:58.334Z,94.46
2022-11-15T00:46:58.315Z,94.65
2022-11-15T00:47:58.296Z,94.56
2022-11-15T00:48:58.275Z,93.98
2022-11-15T00:49:58.250Z,94.46
2022-11-15T00:50:58.228Z,94.32
2022-11-15T00:51:58.216Z,94.56
2022-11-15T00:52:58.187Z,94.41
2022-11-15T00:53:58.193Z,94.22
2022-11-15T00:54:58.149Z,94.32
2022-11-15T00:55:58.127Z,94.70
2022-11-15T00:56:58.104Z,94.98
2022-11-15T00:57:58.086Z,95.27
2022-11-15T00:58:58.062Z,94.51
2022-11-15T00:59:58.045Z,94.89
2022-11-15T01:00:58.097Z,94.51
2022-11-15T01:01:58.006Z,94.89
2022-11-15T01:02:57.979Z,93.93
2022-11-15T01:04:01.218Z,94.70
2022-11-15T01:04:57.939Z,94.60
2022-11-15T01:05:57.920Z,93.98
2022-11-15T01:06:57.974Z,94.03
2022-11-15T01:07:57.878Z,93.55
2022-11-15T01:08:57.855Z,93.74
2022-11-15T01:09:57.855Z,93.65
2022-11-15T01:10:57.811Z,93.84
2022-11-15T01:11:57.795Z,93.55
2022-11-15T01:12:57.770Z,93.17
2022-11-15T01:13:57.753Z,93.08
2022-11-15T01:14:57.731Z,93.36
2022-11-15T01:15:57.715Z,93.74
2022-11-15T01:16:57.690Z,93.93
2022-11-15T01:17:57.669Z,94.70
2022-11-15T01:18:57.649Z,94.12
2022-11-15T01:19:57.630Z,93.55
2022-11-15T01:20:57.607Z,93.27
2022-11-15T01:21:57.588Z,93.55
2022-11-15T01:22:57.564Z,93.46
2022-11-15T01:23:57.545Z,93.46
2022-11-15T01:24:57.524Z,92.79
2022-11-15T01:25:57.521Z,92.50
2022-11-15T01:26:57.483Z,91.93
2022-11-15T01:27:57.460Z,91.55
2022-11-15T01:28:57.437Z,91.27
2022-11-15T01:29:57.419Z,90.59
2022-11-15T01:30:57.399Z,90.69
2022-11-15T01:31:57.383Z,90.31
2022-11-15T01:32:57.361Z,89.93
2022-11-15T01:33:57.335Z,90.03
2022-11-15T01:34:57.311Z,89.17
2022-11-15T01:35:57.296Z,89.07
2022-11-15T01:36:57.273Z,88.78
2022-11-15T01:37:57.250Z,88.21
2022-11-15T01:38:57.237Z,87.64
2022-11-15T01:39:57.212Z,87.35
2022-11-15T01:40:57.192Z,87.45
2022-11-15T01:41:57.187Z,87.07
2022-11-15T01:42:57.151Z,86.21
2022-11-15T01:43:57.124Z,86.49
2022-11-15T01:44:57.100Z,85.73
2022-11-15T01:45:57.086Z,86.21
2022-11-15T01:46:57.064Z,85.83
2022-11-15T01:47:57.050Z,86.59
2022-11-15T01:48:57.022Z,86.02
2022-11-15T01:49:57.003Z,86.11
2022-11-15T01:50:56.979Z,85.93
2022-11-15T01:51:56.962Z,86.30
2022-11-15T01:52:56.944Z,86.11
2022-11-15T01:53:56.922Z,86.11
2022-11-15T01:54:56.897Z,85.83
2022-11-15T01:55:56.882Z,86.02
2022-11-15T01:56:56.857Z,86.02
2022-11-15T01:57:56.856Z,86.21
2022-11-15T01:58:56.817Z,86.11
2022-11-15T01:59:56.799Z,85.93
2022-11-15T02:00:56.851Z,86.30
2022-11-15T02:01:56.751Z,86.11
2022-11-15T02:02:56.731Z,86.02
2022-11-15T02:03:56.714Z,85.83
2022-11-15T02:04:56.687Z,86.21
2022-11-15T02:05:56.670Z,86.02
2022-11-15T02:06:56.698Z,85.54
2022-11-15T02:07:56.628Z,85.54
2022-11-15T02:08:56.608Z,85.16
2022-11-15T02:09:56.586Z,84.88
2022-11-15T02:10:56.566Z,84.88
2022-11-15T02:11:56.546Z,84.78
2022-11-15T02:12:56.522Z,84.20
2022-11-15T02:13:56.522Z,83.92
2022-11-15T02:14:56.478Z,83.83
2022-11-15T02:16:00.341Z,83.92
2022-11-15T02:16:56.444Z,83.54
2022-11-15T02:17:56.418Z,83.73
2022-11-15T02:18:56.402Z,84.11
2022-11-15T02:19:56.380Z,83.92
2022-11-15T02:20:56.355Z,83.83
2022-11-15T02:21:56.337Z,83.35
2022-11-15T02:22:56.317Z,82.97
2022-11-15T02:23:56.297Z,83.06
2022-11-15T02:24:56.273Z,82.59
2022-11-15T02:25:56.253Z,81.92
2022-11-15T02:26:56.235Z,81.82
2022-11-15T02:27:56.213Z,81.73
2022-11-15T02:28:56.193Z,81.63
2022-11-15T02:29:56.193Z,81.63
2022-11-15T02:30:56.150Z,81.63
2022-11-15T02:31:56.131Z,81.29
2022-11-15T02:32:56.109Z,81.54
2022-11-15T02:33:56.090Z,81.63
2022-11-15T02:34:56.068Z,80.72
2022-11-15T02:35:56.051Z,80.20
2022-11-15T02:36:56.027Z,80.20
2022-11-15T02:37:56.006Z,80.11
2022-11-15T02:38:55.987Z,79.38
2022-11-15T02:39:55.967Z,80.01
2022-11-15T02:40:55.940Z,79.67
2022-11-15T02:41:55.924Z,80.15
2022-11-15T02:42:55.900Z,79.48
2022-11-15T02:43:55.884Z,79.48
2022-11-15T02:44:55.857Z,79.48
2022-11-15T02:45:55.863Z,78.91
2022-11-15T02:46:55.816Z,79.19
2022-11-15T02:47:55.820Z,79.00
2022-11-15T02:48:55.785Z,79.28
2022-11-15T02:49:55.765Z,79.38
2022-11-15T02:50:55.734Z,79.38
2022-11-15T02:51:55.740Z,78.62
2022-11-15T02:52:55.701Z,78.91
2022-11-15T02:53:55.686Z,79.19
2022-11-15T02:54:55.654Z,78.23
2022-11-15T02:55:55.644Z,77.76
2022-11-15T02:56:55.607Z,77.28
2022-11-15T02:57:55.593Z,77.28
2022-11-15T02:58:55.567Z,77.38
2022-11-15T02:59:55.555Z,76.62
2022-11-15T03:00:55.550Z,76.04
2022-11-15T03:01:55.526Z,76.14
2022-11-15T03:02:55.483Z,76.14
2022-11-15T03:03:55.471Z,76.42
2022-11-15T03:04:55.452Z,76.52
2022-11-15T03:05:55.474Z,76.04
2022-11-15T03:06:55.410Z,76.33
2022-11-15T03:08:00.926Z,76.14
2022-11-15T03:08:55.364Z,75.95
2022-11-15T03:09:55.343Z,75.57
2022-11-15T03:10:55.325Z,75.66
2022-11-15T03:11:55.305Z,75.66
2022-11-15T03:12:55.277Z,75.66
2022-11-15T03:13:55.265Z,75.66
2022-11-15T03:14:55.237Z,75.37
2022-11-15T03:15:55.222Z,75.85
2022-11-15T03:16:55.195Z,75.76
2022-11-15T03:17:55.203Z,75.57
2022-11-15T03:18:55.157Z,75.85
2022-11-15T03:19:55.154Z,75.95
2022-11-15T03:20:55.117Z,75.85
2022-11-15T03:21:55.098Z,75.47
2022-11-15T03:22:55.076Z,75.66
2022-11-15T03:23:55.056Z,75.18
2022-11-15T03:24:55.035Z,75.03
2022-11-15T03:25:55.015Z,75.03
2022-11-15T03:26:54.994Z,75.66
2022-11-15T03:27:54.977Z,75.60
2022-11-15T03:28:54.955Z,75.98
2022-11-15T03:29:54.931Z,75.42
2022-11-15T03:30:54.914Z,75.89
2022-11-15T03:31:54.892Z,75.79
2022-11-15T03:32:54.871Z,75.32
2022-11-15T03:33:54.870Z,75.32
2022-11-15T03:34:54.833Z,75.03
2022-11-15T03:35:54.809Z,74.46
2022-11-15T03:36:54.780Z,74.37
2022-11-15T03:37:54.810Z,74.37
2022-11-15T03:38:54.748Z,74.08
2022-11-15T03:39:54.729Z,73.41
2022-11-15T03:40:54.704Z,73.32
2022-11-15T03:41:54.684Z,73.60
2022-11-15T03:42:54.667Z,73.41
2022-11-15T03:43:54.649Z,73.32
2022-11-15T03:44:54.624Z,73.03
2022-11-15T03:45:54.599Z,72.93
2022-11-15T03:46:54.586Z,72.36
2022-11-15T03:47:54.568Z,72.36
2022-11-15T03:48:54.543Z,72.55
2022-11-15T03:49:54.551Z,71.88
2022-11-15T03:50:54.503Z,72.17
2022-11-15T03:51:54.485Z,71.88
2022-11-15T03:52:54.459Z,71.98
2022-11-15T03:53:54.443Z,71.78
2022-11-15T03:54:54.425Z,71.59
2022-11-15T03:55:54.409Z,70.92
2022-11-15T03:56:54.380Z,70.26
2022-11-15T03:57:54.363Z,70.92
2022-11-15T03:58:54.339Z,70.83
2022-11-15T03:59:54.320Z,70.73
2022-11-15T04:00:54.416Z,70.73
2022-11-15T04:01:54.282Z,71.02
2022-11-15T04:02:54.257Z,70.36
2022-11-15T04:03:54.238Z,70.36
2022-11-15T04:04:54.213Z,70.92
2022-11-15T04:05:54.219Z,70.26
2022-11-15T04:06:54.211Z,70.26
2022-11-15T04:07:54.157Z,70.26
2022-11-15T04:08:54.140Z,70.26
2022-11-15T04:09:54.120Z,69.78
2022-11-15T04:10:54.093Z,69.97
2022-11-15T04:11:54.076Z,69.97
2022-11-15T04:12:54.054Z,69.59
2022-11-15T04:13:54.036Z,69.40
2022-11-15T04:14:54.015Z,69.40
2022-11-15T04:15:53.994Z,69.11
2022-11-15T04:16:53.973Z,68.29
2022-11-15T04:17:53.960Z,68.06
2022-11-15T04:18:53.939Z,68.16
2022-11-15T04:19:53.917Z,68.19
2022-11-15T04:20:53.897Z,67.77
2022-11-15T04:21:53.892Z,67.77
2022-11-15T04:22:53.858Z,67.14
2022-11-15T04:23:53.841Z,66.72
2022-11-15T04:24:53.811Z,66.15
2022-11-15T04:25:53.796Z,66.35
2022-11-15T04:26:53.773Z,66.15
2022-11-15T04:27:53.757Z,66.09
2022-11-15T04:28:53.731Z,65.48
2022-11-15T04:29:53.715Z,65.61
2022-11-15T04:30:53.695Z,65.52
2022-11-15T04:31:53.677Z,65.80
2022-11-15T04:32:53.650Z,65.80
2022-11-15T04:33:53.631Z,65.33
2022-11-15T04:34:53.612Z,65.04
2022-11-15T04:35:53.596Z,64.85
2022-11-15T04:36:53.572Z,64.28
2022-11-15T04:37:53.579Z,64.37
2022-11-15T04:38:53.534Z,63.99
2022-11-15T04:39:53.510Z,63.99
2022-11-15T04:40:53.492Z,64.18
2022-11-15T04:41:53.467Z,64.37
2022-11-15T04:42:53.450Z,64.28
2022-11-15T04:43:53.429Z,64.09
2022-11-15T04:44:53.409Z,64.18
2022-11-15T04:45:53.389Z,63.99
2022-11-15T04:46:53.369Z,63.60
2022-11-15T04:47:53.351Z,63.51
2022-11-15T04:48:58.303Z,63.70
2022-11-15T04:49:53.311Z,63.51
2022-11-15T04:50:53.290Z,63.23
2022-11-15T04:51:53.269Z,63.32
2022-11-15T04:52:53.250Z,63.80
2022-11-15T04:53:53.249Z,63.89
2022-11-15T04:54:53.207Z,64.18
2022-11-15T04:55:53.185Z,63.60
2022-11-15T04:56:53.168Z,63.60
2022-11-15T04:57:53.149Z,63.70
2022-11-15T04:58:53.128Z,63.93
2022-11-15T04:59:53.108Z,64.37
2022-11-15T05:00:53.157Z,64.47
2022-11-15T05:01:53.069Z,64.59
2022-11-15T05:02:53.045Z,63.99
2022-11-15T05:03:53.032Z,63.73
2022-11-15T05:04:53.008Z,63.64
2022-11-15T05:05:52.982Z,63.93
2022-11-15T05:06:53.046Z,63.64
2022-11-15T05:07:52.945Z,63.93
2022-11-15T05:08:52.923Z,64.50
2022-11-15T05:09:52.930Z,64.12
2022-11-15T05:10:52.887Z,64.50
2022-11-15T05:11:52.867Z,64.59
2022-11-15T05:12:52.846Z,64.31
2022-11-15T05:13:52.823Z,64.31
2022-11-15T05:14:52.805Z,64.31
2022-11-15T05:15:52.783Z,64.59
2022-11-15T05:16:52.761Z,64.69
2022-11-15T05:17:52.748Z,64.22
2022-11-15T05:18:52.723Z,64.40
2022-11-15T05:19:52.704Z,63.45
2022-11-15T05:20:52.688Z,63.93
2022-11-15T05:21:52.666Z,63.35
2022-11-15T05:22:52.643Z,63.83
2022-11-15T05:23:52.628Z,63.83
2022-11-15T05:24:52.624Z,64.02
2022-11-15T05:25:52.603Z,63.93
2022-11-15T05:26:52.568Z,63.83
2022-11-15T05:27:52.546Z,63.93
2022-11-15T05:28:52.542Z,64.40
2022-11-15T05:29:52.510Z,63.73
2022-11-15T05:30:52.524Z,64.31
2022-11-15T05:31:52.466Z,64.22
2022-11-15T05:32:52.444Z,64.12
2022-11-15T05:33:52.434Z,63.83
2022-11-15T05:34:52.403Z,63.35
2022-11-15T05:35:52.386Z,64.22
2022-11-15T05:36:52.366Z,64.59
2022-11-15T05:37:52.348Z,64.50
2022-11-15T05:38:52.323Z,64.50
2022-11-15T05:39:52.306Z,64.40
2022-11-15T05:40:52.284Z,64.22
2022-11-15T05:41:52.286Z,64.50
2022-11-15T05:42:52.244Z,63.93
2022-11-15T05:43:52.227Z,63.93
2022-11-15T05:44:52.200Z,63.93
2022-11-15T05:45:52.187Z,63.07
2022-11-15T05:46:52.167Z,63.16
2022-11-15T05:47:52.151Z,62.78
2022-11-15T05:48:52.126Z,63.07
2022-11-15T05:49:52.115Z,63.07
2022-11-15T05:50:52.085Z,63.54
2022-11-15T05:51:52.070Z,63.64
2022-11-15T05:52:52.047Z,63.26
2022-11-15T05:53:52.026Z,62.97
2022-11-15T05:54:52.003Z,63.35
2022-11-15T05:55:51.989Z,62.97
2022-11-15T05:56:51.972Z,63.07
2022-11-15T05:57:51.964Z,62.97
2022-11-15T05:58:56.751Z,63.35
2022-11-15T05:59:51.903Z,62.97
2022-11-15T06:00:51.884Z,62.87
2022-11-15T06:01:51.953Z,62.49
2022-11-15T06:02:51.845Z,62.78
2022-11-15T06:03:51.826Z,62.87
2022-11-15T06:04:51.807Z,62.65
2022-11-15T06:05:51.787Z,63.07
2022-11-15T06:06:51.814Z,63.07
2022-11-15T06:07:51.749Z,62.30
2022-11-15T06:08:51.729Z,61.92
2022-11-15T06:09:51.707Z,62.30
2022-11-15T06:10:51.689Z,62.46
2022-11-15T06:11:51.668Z,62.08
2022-11-15T06:12:51.647Z,62.18
2022-11-15T06:13:51.645Z,61.60
2022-11-15T06:14:51.614Z,61.60
2022-11-15T06:15:51.590Z,61.41
2022-11-15T06:16:51.569Z,61.03
2022-11-15T06:17:51.552Z,60.74
2022-11-15T06:18:51.537Z,60.93
2022-11-15T06:19:51.508Z,61.13
2022-11-15T06:20:51.488Z,60.74
2022-11-15T06:21:51.468Z,60.64
2022-11-15T06:22:51.449Z,61.13
2022-11-15T06:23:51.433Z,60.93
2022-11-15T06:24:51.416Z,60.64
2022-11-15T06:25:51.402Z,60.64
2022-11-15T06:26:51.370Z,60.64
2022-11-15T06:27:51.350Z,60.64
2022-11-15T06:28:51.332Z,60.64
2022-11-15T06:29:51.332Z,61.22
2022-11-15T06:30:53.309Z,61.13
2022-11-15T06:31:51.270Z,61.03
2022-11-15T06:32:51.248Z,60.93
2022-11-15T06:33:51.233Z,61.03
2022-11-15T06:34:51.212Z,61.32
2022-11-15T06:35:51.199Z,60.74
2022-11-15T06:36:51.166Z,60.93
2022-11-15T06:37:51.148Z,61.13
2022-11-15T06:38:51.132Z,60.74
2022-11-15T06:39:51.112Z,60.55
2022-11-15T06:40:51.091Z,60.07
2022-11-15T06:41:51.075Z,59.78
2022-11-15T06:42:51.050Z,60.17
2022-11-15T06:43:51.033Z,59.88
2022-11-15T06:44:51.014Z,59.98
2022-11-15T06:45:51.051Z,59.78
2022-11-15T06:46:50.976Z,59.69
2022-11-15T06:47:50.955Z,59.69
2022-11-15T06:48:50.932Z,59.50
2022-11-15T06:49:50.915Z,60.27
2022-11-15T06:50:50.894Z,59.88
2022-11-15T06:51:50.869Z,59.69
2022-11-15T06:52:50.856Z,59.63
2022-11-15T06:53:50.834Z,59.81
2022-11-15T06:54:50.813Z,59.72
2022-11-15T06:55:55.013Z,60.10
2022-11-15T06:56:50.775Z,60.39
2022-11-15T06:57:50.751Z,59.81
2022-11-15T06:58:50.731Z,60.10
2022-11-15T06:59:50.713Z,60.10
2022-11-15T07:00:50.761Z,60.01
2022-11-15T07:01:50.763Z,60.30
2022-11-15T07:02:50.651Z,59.53
2022-11-15T07:03:50.647Z,60.30
2022-11-15T07:04:50.616Z,60.39
2022-11-15T07:05:50.592Z,60.30
2022-11-15T07:06:50.643Z,60.39
2022-11-15T07:07:50.552Z,60.49
2022-11-15T07:08:50.532Z,60.10
2022-11-15T07:09:50.512Z,59.91
2022-11-15T07:10:50.500Z,59.91
2022-11-15T07:11:50.473Z,60.49
2022-11-15T07:12:50.457Z,60.87
2022-11-15T07:13:50.431Z,60.77
2022-11-15T07:14:50.428Z,60.77
2022-11-15T07:15:50.390Z,60.77
2022-11-15T07:16:50.372Z,60.68
2022-11-15T07:17:50.376Z,60.87
2022-11-15T07:18:50.342Z,60.77
2022-11-15T07:19:50.313Z,60.77
2022-11-15T07:20:50.292Z,61.25
2022-11-15T07:21:50.274Z,60.96
2022-11-15T07:22:50.284Z,60.96
2022-11-15T07:23:50.255Z,61.06
2022-11-15T07:24:50.214Z,60.77
2022-11-15T07:25:50.201Z,60.77
2022-11-15T07:26:50.178Z,60.58
2022-11-15T07:27:50.154Z,60.49
2022-11-15T07:28:50.132Z,60.49
2022-11-15T07:29:50.122Z,60.87
2022-11-15T07:30:50.097Z,60.87
2022-11-15T07:31:50.072Z,60.77
2022-11-15T07:32:50.054Z,60.68
2022-11-15T07:33:50.096Z,61.06
2022-11-15T07:34:50.016Z,61.06
2022-11-15T07:35:50.005Z,61.06
2022-11-15T07:36:49.976Z,60.77
2022-11-15T07:37:49.956Z,61.06
2022-11-15T07:38:49.934Z,61.35
2022-11-15T07:39:49.927Z,61.19
2022-11-15T07:40:49.893Z,61.38
2022-11-15T07:41:49.879Z,61.57
2022-11-15T07:42:49.859Z,60.99
2022-11-15T07:43:49.835Z,60.99
2022-11-15T07:44:49.831Z,60.90
2022-11-15T07:45:52.363Z,61.09
2022-11-15T07:46:49.776Z,61.09
2022-11-15T07:47:49.761Z,60.61
2022-11-15T07:48:49.730Z,61.28
2022-11-15T07:49:49.745Z,60.90
2022-11-15T07:50:49.694Z,60.90
2022-11-15T07:51:49.676Z,60.80
2022-11-15T07:52:49.656Z,61.19
2022-11-15T07:53:49.638Z,60.80
2022-11-15T07:54:49.616Z,60.42
2022-11-15T07:55:49.600Z,60.42
2022-11-15T07:56:49.579Z,60.52
2022-11-15T07:57:49.575Z,59.94
2022-11-15T07:58:49.537Z,60.23
2022-11-15T07:59:49.534Z,59.75
2022-11-15T08:00:49.502Z,59.75
2022-11-15T08:01:49.641Z,59.56
2022-11-15T08:02:49.601Z,59.84
2022-11-15T08:03:49.449Z,59.66
2022-11-15T08:04:49.420Z,59.75
2022-11-15T08:05:49.424Z,59.75
2022-11-15T08:06:49.402Z,59.75
2022-11-15T08:07:52.592Z,59.84
2022-11-15T08:08:49.345Z,60.13
2022-11-15T08:09:49.332Z,60.23
2022-11-15T08:10:49.303Z,60.23
2022-11-15T08:11:49.282Z,60.13
2022-11-15T08:12:49.338Z,59.84
2022-11-15T08:13:49.246Z,60.71
2022-11-15T08:14:49.226Z,61.09
2022-11-15T08:15:52.233Z,61.28
2022-11-15T08:16:49.183Z,62.43
2022-11-15T08:17:49.169Z,62.33
2022-11-15T08:18:49.147Z,61.95
2022-11-15T08:19:49.131Z,63.39
2022-11-15T08:20:49.111Z,63.19
2022-11-15T08:21:49.104Z,64.15
2022-11-15T08:22:49.065Z,64.25
2022-11-15T08:23:49.058Z,64.91
2022-11-15T08:24:49.028Z,64.95
2022-11-15T08:25:49.012Z,65.20
2022-11-15T08:26:49.109Z,66.28
2022-11-15T08:27:48.972Z,65.90
2022-11-15T08:28:48.946Z,67.53
2022-11-15T08:29:48.928Z,68.01
2022-11-15T08:30:48.913Z,68.29
2022-11-15T08:31:48.896Z,69.35
2022-11-15T08:32:48.869Z,70.11
2022-11-15T08:33:48.854Z,71.16
2022-11-15T08:34:48.828Z,72.25
2022-11-15T08:35:48.822Z,74.55
2022-11-15T08:36:48.798Z,76.14
2022-11-15T08:37:48.798Z,76.46
2022-11-15T08:38:48.762Z,77.13
2022-11-15T08:39:48.746Z,78.66
2022-11-15T08:40:48.719Z,79.52
2022-11-15T08:41:48.700Z,80.43
2022-11-15T08:42:48.684Z,82.06
2022-11-15T08:43:48.664Z,83.49
2022-11-15T08:44:48.643Z,85.02
2022-11-15T08:45:48.622Z,85.79
2022-11-15T08:46:48.608Z,85.60
2022-11-15T08:47:54.006Z,87.65
2022-11-15T08:48:48.584Z,88.80
2022-11-15T08:49:48.551Z,90.05
2022-11-15T08:50:48.541Z,91.49
2022-11-15T08:51:48.533Z,92.44
2022-11-15T08:52:48.509Z,93.40
2022-11-15T08:53:48.592Z,95.07
2022-11-15T08:54:48.465Z,93.40
2022-11-15T08:55:48.447Z,94.74
2022-11-15T08:56:48.427Z,94.98
2022-11-15T08:57:48.413Z,95.75
2022-11-15T08:58:48.395Z,94.55
2022-11-15T08:59:48.380Z,95.65
2022-11-15T09:00:48.365Z,96.70
2022-11-15T09:01:48.405Z,96.61
2022-11-15T09:02:48.329Z,97.56
2022-11-15T09:03:48.315Z,99.15
2022-11-15T09:04:48.291Z,99.99
2022-11-15T09:05:48.277Z,99.99
2022-11-15T09:06:48.328Z,99.99
2022-11-15T09:07:48.259Z,99.99
2022-11-15T09:08:48.847Z,99.99
2022-11-15T09:09:48.246Z,99.99
2022-11-15T09:10:48.201Z,99.99
2022-11-15T09:11:48.195Z,99.99
2022-11-15T09:12:48.168Z,99.99
2022-11-15T09:13:48.156Z,99.99
2022-11-15T09:14:48.147Z,99.99
2022-11-15T09:15:48.129Z,99.99
2022-11-15T09:16:48.108Z,99.99
2022-11-15T09:17:48.097Z,99.99
2022-11-15T09:18:48.093Z,99.99
2022-11-15T09:19:48.070Z,99.99
2022-11-15T09:20:48.052Z,99.99
2022-11-15T09:21:48.035Z,99.99
2022-11-15T09:22:48.022Z,99.99
2022-11-15T09:23:48.010Z,99.99
2022-11-15T09:24:47.988Z,99.99
2022-11-15T09:25:48.002Z,99.99
2022-11-15T09:26:47.962Z,99.99
2022-11-15T09:27:47.945Z,99.99
2022-11-15T09:28:47.928Z,99.99
2022-11-15T09:29:47.917Z,99.99
2022-11-15T09:30:47.901Z,99.99
2022-11-15T09:31:47.888Z,99.99
2022-11-15T09:32:47.867Z,99.99
2022-11-15T09:33:47.856Z,99.99
2022-11-15T09:34:47.832Z,99.99
2022-11-15T09:35:47.822Z,99.99
2022-11-15T09:36:47.801Z,99.99
2022-11-15T09:37:52.184Z,99.99
2022-11-15T09:38:47.772Z,99.99
2022-11-15T09:39:47.762Z,99.99
2022-11-15T09:40:47.741Z,99.99
2022-11-15T09:41:47.742Z,99.99
2022-11-15T09:42:47.714Z,99.99
2022-11-15T09:43:47.691Z,99.99
2022-11-15T09:44:47.671Z,99.99
2022-11-15T09:45:47.659Z,99.99
2022-11-15T09:46:47.646Z,99.99
2022-11-15T09:47:47.628Z,99.99
2022-11-15T09:48:47.612Z,99.99
2022-11-15T09:49:47.588Z,99.99
2022-11-15T09:50:47.578Z,99.99
2022-11-15T09:51:47.901Z,99.99
2022-11-15T09:52:47.544Z,99.99
2022-11-15T09:54:24.125Z,99.99
2022-11-15T09:54:55.729Z,99.99
2022-11-15T09:55:47.494Z,99.99
2022-11-15T09:56:47.478Z,99.99
2022-11-15T09:57:47.486Z,99.99
2022-11-15T09:58:47.448Z,99.99
2022-11-15T09:59:47.431Z,99.99
2022-11-15T10:00:48.524Z,99.99
2022-11-15T10:01:47.421Z,99.99
2022-11-15T10:02:47.379Z,99.99
2022-11-15T10:03:47.366Z,99.99
2022-11-15T10:04:47.349Z,99.99
2022-11-15T10:05:47.337Z,99.99
2022-11-15T10:06:47.353Z,99.99
2022-11-15T10:07:47.307Z,99.99
2022-11-15T10:08:47.285Z,99.99
2022-11-15T10:09:47.287Z,99.99
2022-11-15T10:10:47.250Z,99.99
2022-11-15T10:11:47.238Z,99.99
2022-11-15T10:12:47.216Z,99.99
2022-11-15T10:13:47.232Z,99.99
2022-11-15T10:14:51.582Z,99.99
2022-11-15T10:15:47.181Z,99.99
2022-11-15T10:16:47.158Z,99.99
2022-11-15T10:17:47.149Z,99.99
2022-11-15T10:18:47.135Z,99.99
2022-11-15T10:19:47.120Z,99.99
2022-11-15T10:20:47.100Z,99.99
2022-11-15T10:21:47.085Z,99.99
2022-11-15T10:22:47.065Z,99.99
2022-11-15T10:23:47.047Z,99.99
2022-11-15T10:24:47.032Z,99.99
2022-11-15T10:25:47.023Z,99.99
2022-11-15T10:26:47.013Z,99.99
2022-11-15T10:27:47.001Z,99.99
2022-11-15T10:28:46.982Z,99.99
2022-11-15T10:29:47.059Z,99.99
2022-11-15T10:30:46.944Z,99.99
2022-11-15T10:31:46.937Z,99.99
2022-11-15T10:32:46.938Z,99.99
2022-11-15T10:33:46.904Z,99.99
2022-11-15T10:34:46.888Z,99.99
2022-11-15T10:35:46.876Z,99.99
2022-11-15T10:36:50.277Z,99.83
2022-11-15T10:37:46.846Z,98.48
2022-11-15T10:38:46.829Z,95.36
2022-11-15T10:39:46.816Z,93.53
2022-11-15T10:40:46.804Z,92.76
2022-11-15T10:41:46.794Z,92.67
2022-11-15T10:42:46.775Z,92.76
2022-11-15T10:43:46.761Z,89.78
2022-11-15T10:44:46.746Z,90.26
2022-11-15T10:45:46.753Z,88.34
2022-11-15T10:46:47.863Z,91.18
2022-11-15T10:47:46.712Z,91.95
2022-11-15T10:48:46.689Z,92.48
2022-11-15T10:49:46.680Z,94.31
2022-11-15T10:50:46.670Z,94.78
2022-11-15T10:51:46.676Z,94.73
2022-11-15T10:52:46.639Z,91.80
2022-11-15T10:53:46.625Z,89.59
2022-11-15T10:54:46.616Z,86.94
2022-11-15T10:55:46.596Z,83.96
2022-11-15T10:56:46.581Z,85.94
2022-11-15T10:57:46.568Z,87.72
2022-11-15T10:58:46.553Z,87.34
2022-11-15T10:59:46.548Z,87.92
2022-11-15T11:00:46.527Z,87.49
2022-11-15T11:01:46.568Z,85.71
2022-11-15T11:02:46.503Z,84.30
2022-11-15T11:03:46.489Z,82.86
2022-11-15T11:04:46.478Z,81.81
2022-11-15T11:05:46.467Z,80.75
2022-11-15T11:06:46.481Z,79.60
2022-11-15T11:07:46.435Z,79.05
2022-11-15T11:08:46.419Z,77.90
2022-11-15T11:09:46.409Z,77.90
2022-11-15T11:10:58.605Z,76.82
2022-11-15T11:11:46.381Z,76.15
2022-11-15T11:12:46.378Z,75.38
2022-11-15T11:13:46.354Z,75.09
2022-11-15T11:14:46.347Z,73.84
2022-11-15T11:15:46.331Z,74.61
2022-11-15T11:16:46.318Z,73.94
2022-11-15T11:17:46.332Z,74.45
2022-11-15T11:18:46.295Z,72.01
2022-11-15T11:19:46.280Z,71.72
2022-11-15T11:20:46.270Z,71.08
2022-11-15T11:21:46.269Z,71.47
2022-11-15T11:22:46.238Z,70.12
2022-11-15T11:23:46.227Z,69.83
2022-11-15T11:24:46.217Z,70.15
2022-11-15T11:25:46.204Z,71.84
2022-11-15T11:26:46.191Z,72.90
2022-11-15T11:27:46.183Z,72.90
2022-11-15T11:28:46.168Z,72.36
2022-11-15T11:29:46.155Z,72.65
2022-11-15T11:30:46.142Z,71.40
2022-11-15T11:31:46.129Z,72.36
2022-11-15T11:32:46.111Z,72.49
2022-11-15T11:33:46.133Z,72.11
2022-11-15T11:34:46.091Z,70.31
2022-11-15T11:35:46.076Z,70.05
2022-11-15T11:36:46.065Z,71.40
2022-11-15T11:37:46.051Z,70.82
2022-11-15T11:38:46.047Z,71.78
2022-11-15T11:39:46.034Z,71.81
2022-11-15T11:40:46.017Z,69.79
2022-11-15T11:41:45.998Z,69.47
2022-11-15T11:42:45.997Z,69.28
2022-11-15T11:43:45.979Z,69.44
2022-11-15T11:44:45.965Z,70.21
2022-11-15T11:45:47.448Z,71.65
2022-11-15T11:46:45.945Z,71.36
2022-11-15T11:47:45.926Z,72.29
2022-11-15T11:48:45.912Z,72.90
2022-11-15T11:49:45.941Z,72.13
2022-11-15T11:50:45.888Z,72.07
2022-11-15T11:51:45.889Z,71.69
2022-11-15T11:52:45.860Z,71.14
2022-11-15T11:53:45.855Z,70.37
2022-11-15T11:54:45.841Z,70.82
2022-11-15T11:55:45.820Z,71.40
2022-11-15T11:56:45.810Z,71.94
2022-11-15T11:57:45.808Z,73.15
2022-11-15T11:58:45.789Z,72.96
2022-11-15T11:59:45.772Z,72.67
2022-11-15T12:00:45.760Z,72.67
2022-11-15T12:01:46.052Z,72.90
2022-11-15T12:02:45.867Z,72.67
2022-11-15T12:03:45.727Z,74.05
2022-11-15T12:04:45.720Z,72.32
2022-11-15T12:05:45.719Z,71.75
2022-11-15T12:06:45.696Z,72.23
2022-11-15T12:07:45.673Z,71.65
2022-11-15T12:08:45.656Z,71.88
2022-11-15T12:09:45.653Z,70.24
2022-11-15T12:10:45.639Z,70.15
2022-11-15T12:11:45.622Z,68.96
2022-11-15T12:12:45.608Z,70.37
2022-11-15T12:13:45.594Z,70.72
2022-11-15T12:14:45.580Z,72.00
2022-11-15T12:15:45.568Z,71.71
2022-11-15T12:16:45.556Z,72.25
2022-11-15T12:17:45.546Z,71.81
2022-11-15T12:18:45.532Z,71.71
2022-11-15T12:19:45.515Z,71.61
2022-11-15T12:20:45.501Z,71.65
2022-11-15T12:21:45.511Z,70.82
2022-11-15T12:22:45.481Z,69.99
2022-11-15T12:23:45.669Z,67.77
2022-11-15T12:24:45.448Z,67.87
2022-11-15T12:25:45.437Z,67.00
2022-11-15T12:26:45.445Z,67.39
2022-11-15T12:27:45.412Z,66.88
2022-11-15T12:29:05.879Z,67.58
2022-11-15T12:29:45.386Z,68.25
2022-11-15T12:30:45.373Z,69.21
2022-11-15T12:31:45.357Z,69.60
2022-11-15T12:32:45.351Z,70.17
2022-11-15T12:33:45.336Z,71.23
2022-11-15T12:34:45.330Z,70.94
2022-11-15T12:35:45.337Z,71.04
2022-11-15T12:36:45.296Z,70.59
2022-11-15T12:37:45.301Z,69.73
2022-11-15T12:38:45.269Z,69.53
2022-11-15T12:39:45.267Z,68.80
2022-11-15T12:40:45.243Z,68.22
2022-11-15T12:41:45.232Z,67.97
2022-11-15T12:42:45.216Z,66.71
2022-11-15T12:43:45.202Z,66.81
2022-11-15T12:44:45.187Z,66.20
2022-11-15T12:45:45.200Z,66.78
2022-11-15T12:46:45.174Z,67.00
2022-11-15T12:47:45.153Z,66.49
2022-11-15T12:48:45.137Z,66.49
2022-11-15T12:49:45.124Z,67.07
2022-11-15T12:50:45.119Z,67.74
2022-11-15T12:51:45.103Z,67.71
2022-11-15T12:52:45.086Z,68.09